Time;durP1;ratioP1;P1;durP2;ratioP2;P2;SDS_P1;SDS_P2;PMS_P1;PMS_P2;Temp;Humidity;BMP_temperature;BMP_pressure;BME280_temperature;BME280_humidity;BME280_pressure;Samples;Min_cycle;Max_cycle;Signal;HPM_P1;HPM_P2
2021/07/03 00:01:56;;;;;;;18.63;16.73;;;16.30;99.90;;;;;;5052724;28;20162;-72
2021/07/03 00:04:22;;;;;;;16.27;13.60;;;16.30;99.90;;;;;;5039556;28;20513;-70
2021/07/03 00:06:47;;;;;;;15.20;12.40;;;16.30;99.90;;;;;;5032494;28;20190;-71
2021/07/03 00:09:13;;;;;;;15.93;13.80;;;16.30;99.90;;;;;;5033452;28;20274;-71
2021/07/03 00:11:39;;;;;;;14.10;11.90;;;16.30;99.90;;;;;;5033062;28;20261;-71
2021/07/03 00:14:05;;;;;;;14.90;12.47;;;16.40;99.90;;;;;;5039724;28;20657;-70
2021/07/03 00:16:30;;;;;;;14.63;12.93;;;16.40;99.90;;;;;;5053042;28;20432;-72
2021/07/03 00:18:56;;;;;;;15.70;12.70;;;16.40;99.90;;;;;;5053070;28;20202;-71
2021/07/03 00:21:21;;;;;;;14.10;12.60;;;16.40;99.90;;;;;;5052766;28;20212;-70
2021/07/03 00:23:47;;;;;;;14.27;12.77;;;16.40;99.90;;;;;;5053454;28;20662;-71
2021/07/03 00:26:12;;;;;;;14.13;11.77;;;16.40;99.90;;;;;;5036905;28;20719;-71
2021/07/03 00:28:38;;;;;;;17.70;13.00;;;16.30;99.90;;;;;;5036618;28;20222;-70
2021/07/03 00:31:04;;;;;;;14.23;12.73;;;16.30;99.90;;;;;;5036774;28;20591;-70
2021/07/03 00:33:29;;;;;;;14.87;12.97;;;16.30;99.90;;;;;;5035755;28;20175;-70
2021/07/03 00:35:55;;;;;;;14.53;12.93;;;16.20;99.90;;;;;;5037114;28;20203;-72
2021/07/03 00:38:20;;;;;;;16.40;13.07;;;16.20;99.90;;;;;;5036367;28;20206;-72
2021/07/03 00:40:46;;;;;;;16.07;13.37;;;16.10;99.90;;;;;;5035712;28;20167;-71
2021/07/03 00:43:12;;;;;;;14.37;12.87;;;16.10;99.90;;;;;;5035617;28;20175;-71
2021/07/03 00:45:38;;;;;;;14.33;12.83;;;16.10;99.90;;;;;;5037296;28;20194;-71
2021/07/03 00:48:04;;;;;;;16.33;13.20;;;16.10;99.90;;;;;;5036134;28;20903;-71
2021/07/03 00:50:30;;;;;;;14.67;13.13;;;16.10;99.90;;;;;;5035858;28;20488;-71
2021/07/03 00:52:56;;;;;;;16.50;14.30;;;16.10;99.90;;;;;;5035433;28;20187;-71
2021/07/03 00:55:21;;;;;;;17.07;14.20;;;16.00;99.90;;;;;;5034286;28;20195;-71
2021/07/03 00:57:47;;;;;;;15.70;13.53;;;16.00;99.90;;;;;;5036768;28;20829;-71
2021/07/03 01:00:15;;;;;;;14.63;12.80;;;16.00;99.90;;;;;;5034481;28;20203;-73
2021/07/03 01:02:40;;;;;;;14.53;12.70;;;16.00;99.90;;;;;;5035452;28;20998;-71
2021/07/03 01:05:07;;;;;;;15.50;12.57;;;16.00;99.90;;;;;;5044384;28;20432;-71
2021/07/03 01:07:33;;;;;;;15.80;13.53;;;16.00;99.90;;;;;;5055242;28;20170;-71
2021/07/03 01:09:59;;;;;;;18.30;13.17;;;16.00;99.90;;;;;;5055861;28;20495;-71
2021/07/03 01:12:24;;;;;;;15.33;13.50;;;16.00;99.90;;;;;;5054128;28;20516;-72
2021/07/03 01:14:51;;;;;;;14.30;12.80;;;16.00;99.90;;;;;;5050923;28;20179;-71
2021/07/03 01:17:17;;;;;;;14.47;13.00;;;16.00;99.90;;;;;;5035512;28;20179;-71
2021/07/03 01:19:44;;;;;;;13.73;12.33;;;15.90;99.90;;;;;;5035465;28;20499;-71
2021/07/03 01:22:12;;;;;;;15.63;12.33;;;16.00;99.90;;;;;;5035374;28;20408;-71
2021/07/03 01:24:39;;;;;;;15.77;14.17;;;15.90;99.90;;;;;;5035506;28;20830;-71
2021/07/03 01:27:05;;;;;;;15.60;12.97;;;15.90;99.90;;;;;;5050400;28;20435;-71
2021/07/03 01:29:32;;;;;;;15.60;13.83;;;15.90;99.90;;;;;;5052824;28;20416;-71
2021/07/03 01:31:59;;;;;;;14.43;12.87;;;15.90;99.90;;;;;;5054823;28;20442;-71
2021/07/03 01:34:27;;;;;;;14.80;13.20;;;15.90;99.90;;;;;;5054869;28;20416;-71
2021/07/03 01:36:54;;;;;;;14.93;13.17;;;15.90;99.90;;;;;;5055164;28;20890;-73
2021/07/03 01:39:20;;;;;;;15.80;12.77;;;15.90;99.90;;;;;;5053153;28;20821;-72
2021/07/03 01:41:46;;;;;;;14.87;12.20;;;15.80;99.90;;;;;;5054672;28;20411;-71
2021/07/03 01:44:12;;;;;;;16.40;13.50;;;15.80;99.90;;;;;;5054600;28;20408;-71
2021/07/03 01:46:38;;;;;;;16.00;14.10;;;15.80;99.90;;;;;;5050161;28;20213;-72
2021/07/03 01:49:06;;;;;;;15.70;13.50;;;15.80;99.90;;;;;;5040589;28;20919;-72
2021/07/03 01:51:32;;;;;;;15.97;13.60;;;15.80;99.90;;;;;;5034584;28;20556;-71
2021/07/03 01:53:57;;;;;;;16.23;13.50;;;15.80;99.90;;;;;;5034756;28;20497;-71
2021/07/03 01:56:23;;;;;;;16.87;13.60;;;15.80;99.90;;;;;;5034407;28;20191;-71
2021/07/03 01:58:49;;;;;;;16.47;12.67;;;15.80;99.90;;;;;;5036111;28;20209;-72
2021/07/03 02:01:14;;;;;;;14.50;12.50;;;15.80;99.90;;;;;;5052839;28;20178;-71
2021/07/03 02:03:40;;;;;;;16.77;12.20;;;15.80;99.90;;;;;;5054272;28;20252;-71
2021/07/03 02:06:05;;;;;;;15.30;13.67;;;15.70;99.90;;;;;;5054299;28;20185;-71
2021/07/03 02:08:31;;;;;;;15.90;13.67;;;15.70;99.90;;;;;;5054559;28;20186;-71
2021/07/03 02:11:01;;;;;;;16.60;13.00;;;15.70;99.90;;;;;;5039372;28;20214;-71
2021/07/03 02:13:27;;;;;;;14.37;12.00;;;15.70;99.90;;;;;;5034070;28;20405;-71
2021/07/03 02:15:53;;;;;;;14.63;12.20;;;15.70;99.90;;;;;;5033996;28;20418;-71
2021/07/03 02:18:19;;;;;;;13.83;12.40;;;15.70;99.90;;;;;;5034082;28;20472;-71
2021/07/03 02:20:45;;;;;;;14.90;13.40;;;15.60;99.90;;;;;;5041786;28;20194;-71
2021/07/03 02:23:11;;;;;;;19.00;13.10;;;15.60;99.90;;;;;;5053722;28;20197;-71
2021/07/03 02:25:36;;;;;;;17.87;13.83;;;15.50;99.90;;;;;;5054069;28;20194;-71
2021/07/03 02:28:03;;;;;;;13.77;12.20;;;15.50;99.90;;;;;;5054353;28;20405;-71
2021/07/03 02:30:30;;;;;;;16.83;14.10;;;15.50;99.90;;;;;;5052615;28;20178;-71
2021/07/03 02:32:56;;;;;;;16.30;13.00;;;15.50;99.90;;;;;;5053764;28;20465;-71
2021/07/03 02:35:22;;;;;;;20.10;12.60;;;15.50;99.90;;;;;;5053853;28;20424;-71
2021/07/03 02:37:48;;;;;;;16.50;13.10;;;15.50;99.90;;;;;;5053772;28;20393;-72
2021/07/03 02:40:16;;;;;;;16.73;13.90;;;15.50;99.90;;;;;;5049690;28;20221;-72
2021/07/03 02:42:42;;;;;;;16.50;13.50;;;15.50;99.90;;;;;;5035662;28;20468;-71
2021/07/03 02:45:11;;;;;;;14.93;12.47;;;15.50;99.90;;;;;;5033015;28;20430;-71
2021/07/03 02:47:37;;;;;;;14.93;13.30;;;15.50;99.90;;;;;;5033949;28;20221;-71
2021/07/03 02:50:09;;;;;;;17.10;14.10;;;15.50;99.90;;;;;;5032334;28;20421;-71
2021/07/03 02:52:34;;;;;;;18.27;13.43;;;15.40;99.90;;;;;;5035449;28;20446;-72
2021/07/03 02:55:00;;;;;;;15.00;13.40;;;15.20;99.90;;;;;;5039697;28;20409;-71
2021/07/03 02:57:26;;;;;;;15.23;13.70;;;15.20;99.90;;;;;;5035288;28;20615;-71
2021/07/03 02:59:51;;;;;;;15.93;13.40;;;15.20;99.90;;;;;;5033779;28;20222;-71
2021/07/03 03:02:17;;;;;;;15.03;13.20;;;15.20;99.90;;;;;;5033775;28;20205;-71
2021/07/03 03:04:42;;;;;;;19.50;14.77;;;15.20;99.90;;;;;;5052324;28;20178;-71
2021/07/03 03:07:08;;;;;;;20.13;14.43;;;15.20;99.90;;;;;;5053342;28;20227;-71
2021/07/03 03:09:33;;;;;;;19.43;14.00;;;15.00;99.90;;;;;;5054533;28;20174;-71
2021/07/03 03:11:59;;;;;;;17.30;14.10;;;15.00;99.90;;;;;;5054906;28;20515;-71
2021/07/03 03:14:25;;;;;;;17.43;14.30;;;15.00;99.90;;;;;;5054108;28;20335;-71
2021/07/03 03:16:54;;;;;;;15.50;13.30;;;15.00;99.90;;;;;;5055386;28;20271;-71
2021/07/03 03:19:19;;;;;;;17.37;13.40;;;15.10;99.90;;;;;;5057428;28;20221;-71
2021/07/03 03:21:45;;;;;;;16.47;13.37;;;15.10;99.90;;;;;;5057899;28;20447;-71
2021/07/03 03:24:11;;;;;;;18.10;13.80;;;15.10;99.90;;;;;;5051774;28;20179;-71
2021/07/03 03:26:36;;;;;;;16.13;13.10;;;15.10;99.90;;;;;;5053276;28;20209;-71
2021/07/03 03:29:03;;;;;;;16.63;14.77;;;15.20;99.90;;;;;;5047193;28;20206;-71
2021/07/03 03:31:29;;;;;;;19.63;12.97;;;15.20;99.90;;;;;;5035859;28;20273;-71
2021/07/03 03:33:55;;;;;;;16.23;14.17;;;15.20;99.90;;;;;;5033497;28;20413;-71
2021/07/03 03:36:20;;;;;;;17.17;13.73;;;15.20;99.90;;;;;;5048793;28;20805;-71
2021/07/03 03:38:46;;;;;;;17.70;13.80;;;15.20;99.90;;;;;;5053071;28;20506;-72
2021/07/03 03:41:12;;;;;;;15.80;14.17;;;15.20;99.90;;;;;;5053531;28;20265;-72
2021/07/03 03:43:37;;;;;;;17.90;13.43;;;15.20;99.90;;;;;;5053343;28;20189;-71
2021/07/03 03:46:03;;;;;;;14.93;13.40;;;15.20;99.90;;;;;;5044015;28;20194;-71
2021/07/03 03:48:28;;;;;;;16.60;13.87;;;15.20;99.90;;;;;;5033692;28;20213;-71
2021/07/03 03:50:54;;;;;;;14.80;13.20;;;15.20;99.90;;;;;;5032842;28;20159;-72
2021/07/03 03:53:20;;;;;;;14.70;13.10;;;15.20;99.90;;;;;;5033104;28;20604;-71
2021/07/03 03:55:45;;;;;;;14.07;12.67;;;15.10;99.90;;;;;;5033607;28;20712;-71
2021/07/03 03:58:11;;;;;;;14.43;12.30;;;15.10;99.90;;;;;;5054741;28;20448;-70
2021/07/03 04:00:36;;;;;;;14.40;12.90;;;15.10;99.90;;;;;;5057143;28;20690;-71
2021/07/03 04:03:02;;;;;;;17.40;13.80;;;15.10;99.90;;;;;;5055356;28;20167;-71
2021/07/03 04:05:28;;;;;;;14.20;12.50;;;15.20;99.90;;;;;;5056538;28;20193;-71
2021/07/03 04:07:53;;;;;;;15.90;13.40;;;15.20;99.90;;;;;;5056371;28;20194;-71
2021/07/03 04:10:19;;;;;;;17.00;12.83;;;15.30;99.90;;;;;;5056764;28;20174;-72
2021/07/03 04:12:44;;;;;;;14.90;13.30;;;15.30;99.90;;;;;;5056514;28;20170;-71
2021/07/03 04:15:10;;;;;;;15.67;12.47;;;15.30;99.90;;;;;;5056458;28;20194;-71
2021/07/03 04:17:36;;;;;;;16.20;12.77;;;15.30;99.90;;;;;;5055448;28;20416;-71
2021/07/03 04:20:02;;;;;;;14.40;12.90;;;15.40;99.90;;;;;;5057441;28;20458;-72
2021/07/03 04:22:28;;;;;;;15.50;12.83;;;15.40;99.90;;;;;;5056404;28;20169;-73
2021/07/03 04:24:53;;;;;;;17.37;12.10;;;15.30;99.90;;;;;;5056590;28;20408;-72
2021/07/03 04:27:19;;;;;;;14.23;12.57;;;15.40;99.90;;;;;;5056637;28;20163;-72
2021/07/03 04:29:45;;;;;;;16.03;12.60;;;15.40;99.90;;;;;;5040153;28;20191;-72
2021/07/03 04:32:10;;;;;;;14.73;12.50;;;15.40;99.90;;;;;;5036436;28;20158;-72
2021/07/03 04:34:36;;;;;;;16.30;13.70;;;15.50;99.90;;;;;;5036189;28;20185;-72
2021/07/03 04:37:02;;;;;;;17.60;13.20;;;15.40;99.90;;;;;;5036437;28;20230;-71
2021/07/03 04:39:27;;;;;;;12.93;11.57;;;15.50;99.90;;;;;;5044677;28;20197;-71
2021/07/03 04:41:54;;;;;;;16.57;13.27;;;15.60;99.90;;;;;;5055985;28;20232;-72
2021/07/03 04:44:20;;;;;;;14.27;12.77;;;15.50;99.90;;;;;;5055053;28;20214;-72
2021/07/03 04:46:46;;;;;;;13.70;12.27;;;15.60;99.90;;;;;;5052206;28;20456;-71
2021/07/03 04:49:13;;;;;;;17.27;12.63;;;15.60;99.90;;;;;;5049846;28;20281;-71
2021/07/03 04:51:39;;;;;;;14.33;12.20;;;15.60;99.90;;;;;;5056239;28;20489;-71
2021/07/03 04:54:05;;;;;;;14.17;12.67;;;15.70;99.90;;;;;;5056042;28;20401;-72
2021/07/03 04:56:31;;;;;;;14.30;11.93;;;15.70;99.90;;;;;;5055811;28;20496;-72
2021/07/03 04:58:57;;;;;;;14.07;12.50;;;15.70;99.90;;;;;;5055811;28;20510;-72
2021/07/03 05:01:23;;;;;;;18.13;12.23;;;15.70;99.90;;;;;;5054256;28;20524;-71
2021/07/03 05:03:50;;;;;;;14.20;12.53;;;15.80;99.90;;;;;;5055483;28;20166;-72
2021/07/03 05:06:15;;;;;;;15.80;12.20;;;15.80;99.90;;;;;;5055597;28;20437;-72
2021/07/03 05:08:41;;;;;;;15.43;11.43;;;15.80;99.90;;;;;;5055347;28;20413;-72
2021/07/03 05:11:07;;;;;;;14.90;12.47;;;15.90;99.90;;;;;;5049475;28;20194;-72
2021/07/03 05:13:33;;;;;;;13.87;12.47;;;15.90;99.90;;;;;;5035730;28;20253;-72
2021/07/03 05:15:58;;;;;;;14.27;12.77;;;16.00;99.90;;;;;;5035652;28;20199;-72
2021/07/03 05:18:24;;;;;;;16.43;12.50;;;16.00;99.90;;;;;;5035386;28;20183;-72
2021/07/03 05:20:50;;;;;;;13.43;12.03;;;16.00;99.90;;;;;;5035508;28;20171;-72
2021/07/03 05:23:16;;;;;;;16.27;13.27;;;16.10;99.90;;;;;;5036697;28;20174;-72
2021/07/03 05:25:44;;;;;;;13.93;12.40;;;16.10;99.90;;;;;;5035582;28;20430;-72
2021/07/03 05:28:09;;;;;;;16.00;13.50;;;16.20;99.90;;;;;;5040634;28;20519;-72
2021/07/03 05:30:35;;;;;;;14.87;12.77;;;16.20;99.90;;;;;;5050584;28;20448;-72
2021/07/03 05:33:01;;;;;;;14.90;13.13;;;16.20;99.90;;;;;;5042582;28;20198;-72
2021/07/03 05:35:26;;;;;;;18.00;13.30;;;16.20;99.90;;;;;;5035672;28;20195;-72
2021/07/03 05:37:52;;;;;;;13.37;11.97;;;16.30;99.90;;;;;;5035549;28;20175;-72
2021/07/03 05:40:17;;;;;;;15.63;12.97;;;16.30;99.90;;;;;;5036150;28;20217;-72
2021/07/03 05:42:44;;;;;;;13.10;11.73;;;16.30;99.90;;;;;;5035447;28;20163;-72
2021/07/03 05:45:10;;;;;;;13.07;11.70;;;16.40;99.90;;;;;;5035188;28;20198;-72
2021/07/03 05:47:37;;;;;;;14.00;11.93;;;16.40;99.90;;;;;;5036348;28;20516;-72
2021/07/03 05:50:04;;;;;;;13.57;12.13;;;16.40;99.90;;;;;;5042414;28;20756;-72
2021/07/03 05:52:31;;;;;;;14.40;12.90;;;16.40;99.90;;;;;;5041345;28;20421;-72
2021/07/03 05:54:56;;;;;;;14.17;12.43;;;16.50;99.90;;;;;;5054996;28;20492;-72
2021/07/03 05:57:25;;;;;;;13.73;12.00;;;16.50;99.90;;;;;;5054425;28;20838;-72
2021/07/03 05:59:50;;;;;;;14.70;13.17;;;16.60;99.90;;;;;;5050616;28;20212;-72
2021/07/03 06:02:20;;;;;;;15.17;11.50;;;16.60;99.90;;;;;;5047802;28;20957;-71
2021/07/03 06:04:51;;;;;;;12.63;11.33;;;16.70;99.90;;;;;;5040933;28;20185;-72
2021/07/03 06:07:17;;;;;;;12.17;10.90;;;16.70;99.90;;;;;;5038274;28;20452;-72
2021/07/03 06:09:42;;;;;;;14.23;12.70;;;16.80;99.90;;;;;;5036825;28;20413;-71
2021/07/03 06:12:08;;;;;;;13.07;11.20;;;16.80;99.90;;;;;;5045686;28;20232;-71
2021/07/03 06:14:34;;;;;;;13.87;11.17;;;16.90;99.90;;;;;;5036899;28;20171;-72
2021/07/03 06:16:59;;;;;;;12.57;11.33;;;17.00;99.90;;;;;;5054719;28;20245;-72
2021/07/03 06:19:25;;;;;;;13.43;12.13;;;17.00;99.90;;;;;;5036705;28;20218;-71
2021/07/03 06:21:50;;;;;;;12.83;11.53;;;17.10;99.90;;;;;;5037062;28;20191;-72
2021/07/03 06:24:16;;;;;;;12.13;10.87;;;17.20;99.90;;;;;;5040265;28;20648;-71
2021/07/03 06:26:42;;;;;;;11.50;10.40;;;17.30;99.90;;;;;;5044230;28;20200;-71
2021/07/03 06:29:08;;;;;;;11.80;10.60;;;17.40;99.90;;;;;;5041390;28;20187;-72
2021/07/03 06:31:33;;;;;;;11.40;10.20;;;17.50;99.90;;;;;;5045236;28;20438;-71
2021/07/03 06:33:59;;;;;;;13.40;10.63;;;17.50;99.90;;;;;;5039546;28;20261;-72
2021/07/03 06:36:25;;;;;;;12.83;10.30;;;17.70;99.90;;;;;;5052956;28;20206;-72
2021/07/03 06:38:51;;;;;;;12.93;9.77;;;17.70;99.90;;;;;;5035545;28;20199;-72
2021/07/03 06:41:17;;;;;;;12.13;10.87;;;17.90;99.90;;;;;;5043238;28;20445;-72
2021/07/03 06:43:42;;;;;;;13.13;10.43;;;18.00;99.90;;;;;;5035574;28;20432;-72
2021/07/03 06:46:08;;;;;;;11.40;10.20;;;18.10;99.90;;;;;;5045597;28;20560;-73
2021/07/03 06:48:34;;;;;;;12.37;11.10;;;18.20;99.90;;;;;;5046276;28;20674;-72
2021/07/03 06:50:59;;;;;;;11.37;10.20;;;18.30;99.90;;;;;;5054450;28;20209;-72
2021/07/03 06:53:25;;;;;;;11.20;9.57;;;18.40;99.90;;;;;;5050799;28;20166;-72
2021/07/03 06:55:50;;;;;;;11.30;10.10;;;18.50;99.90;;;;;;5034296;28;20215;-72
2021/07/03 06:58:16;;;;;;;10.47;9.47;;;18.60;99.90;;;;;;5047627;28;20666;-72
2021/07/03 07:00:42;;;;;;;12.50;11.20;;;18.70;99.90;;;;;;5037737;28;20280;-72
2021/07/03 07:03:07;;;;;;;12.43;11.13;;;18.70;99.90;;;;;;5051833;28;20178;-72
2021/07/03 07:05:33;;;;;;;11.87;10.57;;;18.80;99.90;;;;;;5047360;28;20293;-72
2021/07/03 07:07:59;;;;;;;10.97;9.87;;;18.90;99.90;;;;;;5036843;28;20640;-72
2021/07/03 07:10:25;;;;;;;15.10;11.00;;;18.90;99.90;;;;;;5042661;28;20427;-72
2021/07/03 07:12:50;;;;;;;13.60;12.20;;;19.00;99.90;;;;;;5047948;28;20190;-72
2021/07/03 07:15:17;;;;;;;14.53;12.80;;;19.10;99.90;;;;;;5040709;28;20217;-72
2021/07/03 07:17:42;;;;;;;13.07;11.37;;;19.10;99.90;;;;;;5053450;28;20169;-72
2021/07/03 07:20:08;;;;;;;12.37;11.00;;;19.20;99.90;;;;;;5037135;28;21045;-71
2021/07/03 07:22:34;;;;;;;13.50;12.13;;;19.30;99.90;;;;;;5041377;28;20644;-72
2021/07/03 07:25:00;;;;;;;12.77;11.47;;;19.40;99.90;;;;;;5050959;28;20437;-71
2021/07/03 07:27:26;;;;;;;16.03;11.67;;;19.50;99.90;;;;;;5050276;28;20430;-72
2021/07/03 07:29:51;;;;;;;13.33;11.33;;;19.60;99.90;;;;;;5033732;28;20170;-72
2021/07/03 07:32:17;;;;;;;14.73;12.60;;;19.70;99.90;;;;;;5035958;28;20174;-73
2021/07/03 07:34:43;;;;;;;16.60;13.10;;;19.80;99.90;;;;;;5036827;28;20247;-72
2021/07/03 07:37:09;;;;;;;12.80;11.50;;;19.90;99.90;;;;;;5054013;28;20185;-72
2021/07/03 07:39:35;;;;;;;13.13;11.63;;;20.00;99.90;;;;;;5049345;28;20551;-72
2021/07/03 07:42:01;;;;;;;11.73;10.60;;;20.10;99.90;;;;;;5039437;28;20519;-71
2021/07/03 07:44:26;;;;;;;11.23;10.00;;;20.20;99.90;;;;;;5043555;28;20191;-73
2021/07/03 07:46:52;;;;;;;9.70;8.80;;;20.40;99.90;;;;;;5038559;28;20199;-72
2021/07/03 07:49:17;;;;;;;9.50;8.53;;;20.50;99.90;;;;;;5037740;28;20690;-71
2021/07/03 07:51:43;;;;;;;10.43;9.40;;;20.60;99.90;;;;;;5037314;28;20191;-73
2021/07/03 07:54:09;;;;;;;10.50;9.50;;;20.80;99.90;;;;;;5037525;28;20179;-72
2021/07/03 07:56:34;;;;;;;9.77;8.87;;;20.90;99.90;;;;;;5039146;28;20325;-72
2021/07/03 07:59:00;;;;;;;12.00;9.20;;;21.00;99.90;;;;;;5056698;28;20206;-71
2021/07/03 08:01:25;;;;;;;8.83;8.03;;;21.10;99.90;;;;;;5046684;28;20584;-70
2021/07/03 08:03:51;;;;;;;10.87;9.03;;;21.20;99.90;;;;;;5036948;28;20171;-71
2021/07/03 08:06:16;;;;;;;9.87;8.87;;;21.30;99.90;;;;;;5037165;28;20187;-71
2021/07/03 08:08:42;;;;;;;9.70;8.70;;;21.40;99.90;;;;;;5036425;28;20544;-71
2021/07/03 08:11:07;;;;;;;9.07;7.93;;;21.50;99.90;;;;;;5036936;28;20171;-71
2021/07/03 08:13:33;;;;;;;9.00;8.10;;;21.60;99.90;;;;;;5036618;28;20178;-71
2021/07/03 08:15:59;;;;;;;9.43;7.50;;;21.60;99.90;;;;;;5037632;28;20190;-71
2021/07/03 08:18:25;;;;;;;8.93;8.03;;;21.70;99.90;;;;;;5035778;28;20175;-71
2021/07/03 08:20:51;;;;;;;9.00;8.10;;;21.80;99.90;;;;;;5035330;28;20237;-73
2021/07/03 08:23:17;;;;;;;9.40;8.40;;;21.80;99.90;;;;;;5038114;28;20181;-71
2021/07/03 08:25:43;;;;;;;8.83;8.00;;;21.90;99.90;;;;;;5036603;28;20425;-71
2021/07/03 08:28:08;;;;;;;9.20;8.30;;;22.10;99.90;;;;;;5035737;28;20179;-71
2021/07/03 08:30:34;;;;;;;7.83;7.10;;;22.20;99.90;;;;;;5038873;28;20200;-71
2021/07/03 08:33:01;;;;;;;8.10;7.30;;;22.30;99.90;;;;;;5042857;28;20613;-71
2021/07/03 08:35:26;;;;;;;8.40;7.50;;;22.40;99.90;;;;;;5051639;28;20448;-72
2021/07/03 08:37:52;;;;;;;8.03;7.33;;;22.50;99.90;;;;;;5044731;28;21034;-71
2021/07/03 08:40:18;;;;;;;9.40;7.50;;;22.60;99.20;;;;;;5042132;28;20230;-71
2021/07/03 08:42:45;;;;;;;8.07;7.37;;;22.70;98.50;;;;;;5035935;28;20229;-72
2021/07/03 08:45:11;;;;;;;7.37;6.77;;;22.80;98.40;;;;;;5038886;28;20468;-72
2021/07/03 08:47:42;;;;;;;8.63;7.37;;;22.80;98.40;;;;;;5055302;28;20439;-71
2021/07/03 08:50:11;;;;;;;7.43;6.83;;;22.90;98.30;;;;;;5038199;28;20496;-71
2021/07/03 08:52:37;;;;;;;7.87;7.17;;;22.90;98.00;;;;;;5045218;28;20879;-71
2021/07/03 08:55:20;;;;;;;8.37;7.20;;;23.00;97.60;;;;;;5041836;28;20444;-72
2021/07/03 08:57:54;;;;;;;8.20;7.37;;;23.10;97.50;;;;;;5045024;28;20204;-72
2021/07/03 09:00:21;;;;;;;9.90;7.10;;;23.20;96.80;;;;;;5048512;28;20980;-72
2021/07/03 09:02:47;;;;;;;9.37;7.43;;;23.20;96.50;;;;;;5038052;28;20899;-72
2021/07/03 09:05:17;;;;;;;8.40;6.60;;;23.30;96.70;;;;;;5048418;28;20459;-73
2021/07/03 09:07:43;;;;;;;7.57;6.87;;;23.40;96.60;;;;;;5041858;28;20962;-71
2021/07/03 09:10:09;;;;;;;8.27;7.57;;;23.60;96.50;;;;;;5039995;28;20495;-72
2021/07/03 09:12:36;;;;;;;7.90;7.10;;;23.60;96.30;;;;;;5039102;28;20205;-72
2021/07/03 09:15:10;;;;;;;7.20;6.50;;;23.60;96.30;;;;;;5043205;28;20552;-72
2021/07/03 09:18:05;;;;;;;7.57;6.87;;;23.50;96.00;;;;;;5036215;28;20496;-72
2021/07/03 09:20:35;;;;;;;8.30;6.97;;;23.60;95.60;;;;;;5020834;28;20473;-73
2021/07/03 09:23:03;;;;;;;8.70;7.57;;;23.60;95.00;;;;;;5033934;28;20919;-72
2021/07/03 09:25:29;;;;;;;8.17;7.17;;;23.50;95.70;;;;;;5017505;28;20532;-72
2021/07/03 09:27:56;;;;;;;6.97;6.27;;;23.70;95.70;;;;;;5034082;28;20461;-73
2021/07/03 09:30:26;;;;;;;7.80;6.97;;;23.70;94.80;;;;;;5014117;28;20194;-73
2021/07/03 09:32:54;;;;;;;7.70;6.83;;;23.70;94.60;;;;;;5010178;28;20509;-73
2021/07/03 09:35:20;;;;;;;6.70;6.10;;;23.80;94.60;;;;;;5015844;28;20549;-72
2021/07/03 09:37:48;;;;;;;6.70;5.97;;;23.80;94.50;;;;;;5018789;28;20454;-72
2021/07/03 09:40:14;;;;;;;6.63;6.03;;;24.00;94.40;;;;;;5019474;28;20483;-73
2021/07/03 09:42:42;;;;;;;7.80;6.23;;;24.10;94.40;;;;;;5010593;28;20426;-73
2021/07/03 09:45:09;;;;;;;7.00;5.97;;;24.20;94.50;;;;;;5022286;28;20668;-72
2021/07/03 09:47:35;;;;;;;6.93;6.23;;;24.30;94.00;;;;;;4995132;28;20484;-73
2021/07/03 09:50:05;;;;;;;6.53;5.93;;;24.20;93.30;;;;;;5030640;28;20469;-73
2021/07/03 09:52:31;;;;;;;7.00;6.40;;;24.10;93.40;;;;;;5049468;28;20431;-72
2021/07/03 09:54:56;;;;;;;7.73;7.03;;;24.10;93.90;;;;;;5031677;28;20909;-72
2021/07/03 09:57:24;;;;;;;7.50;6.03;;;24.10;93.50;;;;;;5032437;28;20299;-71
2021/07/03 09:59:50;;;;;;;7.33;6.60;;;24.20;93.50;;;;;;5047312;28;20548;-71
2021/07/03 10:02:16;;;;;;;7.17;6.47;;;24.10;93.10;;;;;;5043654;28;20495;-71
2021/07/03 10:04:41;;;;;;;5.87;5.37;;;24.00;92.60;;;;;;5050270;28;20913;-72
2021/07/03 10:07:23;;;;;;;6.07;5.47;;;24.00;92.20;;;;;;5043958;28;20590;-72
2021/07/03 10:10:03;;;;;;;6.43;5.90;;;24.00;91.70;;;;;;5050267;28;20185;-72
2021/07/03 10:12:32;;;;;;;5.73;5.23;;;24.20;92.00;;;;;;5036714;28;20452;-72
2021/07/03 10:14:58;;;;;;;6.57;5.70;;;24.30;91.60;;;;;;5050730;28;20428;-72
2021/07/03 10:17:26;;;;;;;7.07;6.30;;;24.30;91.60;;;;;;5036751;28;20498;-72
2021/07/03 10:19:53;;;;;;;6.87;6.17;;;24.30;91.50;;;;;;5052562;28;20578;-72
2021/07/03 10:22:20;;;;;;;6.03;5.53;;;24.30;91.70;;;;;;5038834;28;20458;-72
2021/07/03 10:24:53;;;;;;;7.37;6.07;;;24.50;92.10;;;;;;5039695;28;20417;-71
2021/07/03 10:27:27;;;;;;;6.53;5.93;;;24.60;92.20;;;;;;5045999;28;20464;-72
2021/07/03 10:29:55;;;;;;;6.60;6.00;;;24.80;91.60;;;;;;5034751;28;20786;-71
2021/07/03 10:32:29;;;;;;;6.10;5.50;;;24.80;91.10;;;;;;5045999;28;20921;-72
2021/07/03 10:35:15;;;;;;;6.30;5.70;;;24.80;91.20;;;;;;5049477;28;20446;-71
2021/07/03 10:37:42;;;;;;;6.40;5.80;;;24.80;91.20;;;;;;5051792;28;20417;-72
2021/07/03 10:40:19;;;;;;;5.77;5.27;;;24.90;90.40;;;;;;5054075;28;20520;-73
2021/07/03 10:42:46;;;;;;;7.77;6.57;;;24.70;90.30;;;;;;5050577;28;20417;-71
2021/07/03 10:45:23;;;;;;;5.87;5.27;;;24.70;91.20;;;;;;5052961;28;20919;-71
2021/07/03 10:47:53;;;;;;;6.20;5.70;;;24.90;91.30;;;;;;5051307;28;20424;-71
2021/07/03 10:50:29;;;;;;;6.83;6.03;;;25.00;90.90;;;;;;5053478;28;20415;-71
2021/07/03 10:52:57;;;;;;;6.85;6.10;;;25.10;90.70;;;;;;5051354;28;20467;-71
2021/07/03 10:55:26;;;;;;;6.73;5.50;;;24.90;90.30;;;;;;5053613;28;20198;-71
2021/07/03 10:57:52;;;;;;;6.00;5.40;;;24.70;87.00;;;;;;5053514;28;20468;-71
2021/07/03 11:00:22;;;;;;;5.00;4.37;;;24.50;86.30;;;;;;5053243;28;20499;-71
2021/07/03 11:02:48;;;;;;;5.20;4.80;;;24.40;86.50;;;;;;5053907;28;20178;-71
2021/07/03 11:05:14;;;;;;;6.67;5.30;;;24.50;87.90;;;;;;5052460;28;20448;-71
2021/07/03 11:07:42;;;;;;;5.70;5.20;;;24.50;88.40;;;;;;5062407;28;20180;-71
2021/07/03 11:10:14;;;;;;;4.70;4.20;;;24.50;87.30;;;;;;5070931;28;20408;-71
2021/07/03 11:12:51;;;;;;;5.03;4.53;;;24.40;85.80;;;;;;5071548;28;20417;-71
2021/07/03 11:15:27;;;;;;;8.07;7.27;;;24.20;83.20;;;;;;5068464;28;20448;-71
2021/07/03 11:17:56;;;;;;;6.20;5.60;;;24.20;84.90;;;;;;5054701;28;20400;-71
2021/07/03 11:20:34;;;;;;;5.60;5.10;;;24.20;86.10;;;;;;5053713;28;21047;-71
2021/07/03 11:23:01;;;;;;;6.40;4.93;;;24.20;86.00;;;;;;5053739;28;20491;-71
2021/07/03 11:25:37;;;;;;;4.10;3.80;;;24.20;83.40;;;;;;5052459;28;20448;-71
2021/07/03 11:28:19;;;;;;;5.33;4.67;;;24.20;84.30;;;;;;5050911;28;20433;-71
2021/07/03 11:30:48;;;;;;;5.93;5.33;;;24.30;84.60;;;;;;5056466;28;20481;-73
2021/07/03 11:33:15;;;;;;;4.97;4.47;;;24.20;85.20;;;;;;5072457;28;20408;-72
2021/07/03 11:35:46;;;;;;;5.37;4.87;;;24.20;86.10;;;;;;5069866;28;20445;-73
2021/07/03 11:38:13;;;;;;;5.93;5.43;;;24.20;90.70;;;;;;5060046;28;20417;-72
2021/07/03 11:40:40;;;;;;;5.37;4.83;;;24.20;90.50;;;;;;5056099;28;20463;-74
2021/07/03 11:43:07;;;;;;;4.90;4.50;;;24.30;91.10;;;;;;5069520;28;20464;-74
2021/07/03 11:45:38;;;;;;;5.93;4.90;;;24.20;91.80;;;;;;5070623;28;20468;-74
2021/07/03 11:48:07;;;;;;;5.87;5.37;;;24.20;90.70;;;;;;5050919;28;20475;-73
2021/07/03 11:50:39;;;;;;;5.87;5.27;;;24.30;91.60;;;;;;5056228;28;20786;-74
2021/07/03 11:53:08;;;;;;;5.80;5.20;;;24.30;91.80;;;;;;5045085;28;20526;-73
2021/07/03 11:55:44;;;;;;;8.17;5.10;;;24.30;92.00;;;;;;5047071;28;20456;-72
2021/07/03 11:58:13;;;;;;;5.57;5.07;;;24.30;90.60;;;;;;5032883;28;20453;-73
2021/07/03 12:00:44;;;;;;;5.50;4.80;;;24.30;90.20;;;;;;5048025;28;20487;-72
2021/07/03 12:03:11;;;;;;;7.50;5.23;;;24.40;88.80;;;;;;5039918;28;20417;-73
2021/07/03 12:05:40;;;;;;;5.83;5.33;;;24.40;88.90;;;;;;5050249;28;21089;-72
2021/07/03 12:08:08;;;;;;;5.97;5.40;;;24.40;88.80;;;;;;5035451;28;20484;-72
2021/07/03 12:10:38;;;;;;;5.70;5.20;;;24.50;88.80;;;;;;5054710;28;20826;-73
2021/07/03 12:13:08;;;;;;;5.97;5.37;;;24.50;87.80;;;;;;5052957;28;20432;-72
2021/07/03 12:15:34;;;;;;;6.00;5.40;;;24.60;88.90;;;;;;5019697;28;20460;-73
2021/07/03 12:18:00;;;;;;;5.47;4.97;;;24.80;88.90;;;;;;5024655;28;20848;-73
2021/07/03 12:20:27;;;;;;;8.07;5.60;;;25.00;88.80;;;;;;5039983;28;20507;-72
2021/07/03 12:22:57;;;;;;;6.13;5.50;;;25.00;88.90;;;;;;5051840;28;20178;-73
2021/07/03 12:25:24;;;;;;;6.00;5.40;;;25.10;90.10;;;;;;5044500;28;20444;-73
2021/07/03 12:27:59;;;;;;;5.70;5.23;;;25.20;89.00;;;;;;5034306;28;20421;-72
2021/07/03 12:30:26;;;;;;;6.00;5.50;;;25.20;89.80;;;;;;5035841;28;20435;-73
2021/07/03 12:33:02;;;;;;;6.33;5.70;;;25.20;88.40;;;;;;5058719;28;20588;-73
2021/07/03 12:35:36;;;;;;;6.43;5.50;;;25.20;87.00;;;;;;5047226;28;20486;-73